sensor_id;sensor_type;location;lat;lon;timestamp;temperature;humidity
34698;DHT22;61391;50.922;6.928;2023-07-09T00:01:33;24.10;99.90
34698;DHT22;61391;50.922;6.928;2023-07-09T00:07:42;23.70;99.90
34698;DHT22;61391;50.922;6.928;2023-07-09T00:13:41;23.70;99.90
34698;DHT22;61391;50.922;6.928;2023-07-09T00:19:29;24.00;99.90
34698;DHT22;61391;50.922;6.928;2023-07-09T00:21:57;23.80;99.90
34698;DHT22;61391;50.922;6.928;2023-07-09T00:27:52;23.50;99.90
34698;DHT22;61391;50.922;6.928;2023-07-09T00:30:23;23.60;99.90
34698;DHT22;61391;50.922;6.928;2023-07-09T00:32:50;23.60;99.90
34698;DHT22;61391;50.922;6.928;2023-07-09T00:35:41;23.60;99.90
34698;DHT22;61391;50.922;6.928;2023-07-09T00:38:26;23.90;99.90
34698;DHT22;61391;50.922;6.928;2023-07-09T00:41:08;23.70;99.90
34698;DHT22;61391;50.922;6.928;2023-07-09T00:54:37;23.20;99.90
34698;DHT22;61391;50.922;6.928;2023-07-09T00:57:18;23.20;99.90
34698;DHT22;61391;50.922;6.928;2023-07-09T01:03:38;23.30;99.90
34698;DHT22;61391;50.922;6.928;2023-07-09T01:06:05;23.20;99.90
34698;DHT22;61391;50.922;6.928;2023-07-09T01:11:55;23.00;99.90
34698;DHT22;61391;50.922;6.928;2023-07-09T01:14:22;22.90;99.90
34698;DHT22;61391;50.922;6.928;2023-07-09T01:16:55;23.00;99.90
34698;DHT22;61391;50.922;6.928;2023-07-09T01:22:53;22.80;99.90
34698;DHT22;61391;50.922;6.928;2023-07-09T01:25:44;22.70;99.90
34698;DHT22;61391;50.922;6.928;2023-07-09T01:31:32;22.80;99.90
34698;DHT22;61391;50.922;6.928;2023-07-09T01:34:08;22.80;99.90
34698;DHT22;61391;50.922;6.928;2023-07-09T01:36:34;23.00;99.90
34698;DHT22;61391;50.922;6.928;2023-07-09T01:39:02;23.10;99.90
34698;DHT22;61391;50.922;6.928;2023-07-09T01:41:32;23.10;99.90
34698;DHT22;61391;50.922;6.928;2023-07-09T01:44:05;23.20;99.90
34698;DHT22;61391;50.922;6.928;2023-07-09T01:50:05;23.30;99.90
34698;DHT22;61391;50.922;6.928;2023-07-09T01:52:33;23.30;99.90
34698;DHT22;61391;50.922;6.928;2023-07-09T01:55:03;23.00;99.90
34698;DHT22;61391;50.922;6.928;2023-07-09T02:00:52;23.20;99.90
34698;DHT22;61391;50.922;6.928;2023-07-09T02:03:19;23.10;99.90
34698;DHT22;61391;50.922;6.928;2023-07-09T02:05:47;23.10;99.90
34698;DHT22;61391;50.922;6.928;2023-07-09T02:11:34;23.20;99.90
34698;DHT22;61391;50.922;6.928;2023-07-09T02:14:01;23.20;99.90
34698;DHT22;61391;50.922;6.928;2023-07-09T02:16:48;23.00;99.90
34698;DHT22;61391;50.922;6.928;2023-07-09T02:19:16;22.80;99.90
34698;DHT22;61391;50.922;6.928;2023-07-09T02:21:46;22.80;99.90
34698;DHT22;61391;50.922;6.928;2023-07-09T02:24:39;22.90;99.90
34698;DHT22;61391;50.922;6.928;2023-07-09T02:27:14;22.70;99.90
34698;DHT22;61391;50.922;6.928;2023-07-09T02:33:13;22.70;99.90
34698;DHT22;61391;50.922;6.928;2023-07-09T02:35:40;22.50;99.90
34698;DHT22;61391;50.922;6.928;2023-07-09T02:41:36;22.40;99.90
34698;DHT22;61391;50.922;6.928;2023-07-09T02:44:09;22.30;99.90
34698;DHT22;61391;50.922;6.928;2023-07-09T02:46:35;22.20;99.90
34698;DHT22;61391;50.922;6.928;2023-07-09T02:49:11;22.10;99.90
34698;DHT22;61391;50.922;6.928;2023-07-09T02:51:37;22.20;99.90
34698;DHT22;61391;50.922;6.928;2023-07-09T02:54:11;22.20;99.90
34698;DHT22;61391;50.922;6.928;2023-07-09T03:00:00;22.10;99.90
34698;DHT22;61391;50.922;6.928;2023-07-09T03:02:39;22.10;99.90
34698;DHT22;61391;50.922;6.928;2023-07-09T03:05:05;22.00;99.90
34698;DHT22;61391;50.922;6.928;2023-07-09T03:07:31;22.10;99.90
34698;DHT22;61391;50.922;6.928;2023-07-09T03:09:57;22.40;99.90
34698;DHT22;61391;50.922;6.928;2023-07-09T03:12:24;22.50;99.90
34698;DHT22;61391;50.922;6.928;2023-07-09T03:14:50;22.50;99.90
34698;DHT22;61391;50.922;6.928;2023-07-09T03:20:39;22.20;99.90
34698;DHT22;61391;50.922;6.928;2023-07-09T03:23:12;22.10;99.90
34698;DHT22;61391;50.922;6.928;2023-07-09T03:25:41;22.30;99.90
34698;DHT22;61391;50.922;6.928;2023-07-09T03:28:11;22.30;99.90
34698;DHT22;61391;50.922;6.928;2023-07-09T03:30:52;22.40;99.90
34698;DHT22;61391;50.922;6.928;2023-07-09T03:33:19;22.20;99.90
34698;DHT22;61391;50.922;6.928;2023-07-09T03:35:57;22.30;99.90
34698;DHT22;61391;50.922;6.928;2023-07-09T03:41:48;22.40;99.90
34698;DHT22;61391;50.922;6.928;2023-07-09T03:44:14;22.50;99.90
34698;DHT22;61391;50.922;6.928;2023-07-09T03:46:39;22.40;99.90
34698;DHT22;61391;50.922;6.928;2023-07-09T03:49:06;22.40;99.90
34698;DHT22;61391;50.922;6.928;2023-07-09T03:51:33;22.40;99.90
34698;DHT22;61391;50.922;6.928;2023-07-09T03:54:00;22.30;99.90
34698;DHT22;61391;50.922;6.928;2023-07-09T03:59:50;22.30;99.90
34698;DHT22;61391;50.922;6.928;2023-07-09T04:02:15;22.20;99.90
34698;DHT22;61391;50.922;6.928;2023-07-09T04:04:47;22.20;99.90
34698;DHT22;61391;50.922;6.928;2023-07-09T04:11:00;22.40;99.90
34698;DHT22;61391;50.922;6.928;2023-07-09T04:13:34;22.60;99.90
34698;DHT22;61391;50.922;6.928;2023-07-09T04:16:00;22.60;99.90
34698;DHT22;61391;50.922;6.928;2023-07-09T04:18:25;22.60;99.90
34698;DHT22;61391;50.922;6.928;2023-07-09T04:20:54;22.60;99.90
34698;DHT22;61391;50.922;6.928;2023-07-09T04:23:22;22.60;99.90
34698;DHT22;61391;50.922;6.928;2023-07-09T04:29:10;22.40;99.90
34698;DHT22;61391;50.922;6.928;2023-07-09T04:31:38;22.40;99.90
34698;DHT22;61391;50.922;6.928;2023-07-09T04:34:07;22.30;99.90
34698;DHT22;61391;50.922;6.928;2023-07-09T04:36:36;22.20;99.90
34698;DHT22;61391;50.922;6.928;2023-07-09T04:39:02;22.00;99.90
34698;DHT22;61391;50.922;6.928;2023-07-09T04:41:34;22.20;99.90
34698;DHT22;61391;50.922;6.928;2023-07-09T04:44:00;22.20;99.90
34698;DHT22;61391;50.922;6.928;2023-07-09T04:46:33;22.00;99.90
34698;DHT22;61391;50.922;6.928;2023-07-09T04:48:59;22.00;99.90
34698;DHT22;61391;50.922;6.928;2023-07-09T04:51:30;21.90;99.90
34698;DHT22;61391;50.922;6.928;2023-07-09T04:53:59;21.80;99.90
34698;DHT22;61391;50.922;6.928;2023-07-09T04:56:42;21.70;99.90
34698;DHT22;61391;50.922;6.928;2023-07-09T04:59:11;21.60;99.90
34698;DHT22;61391;50.922;6.928;2023-07-09T05:01:41;21.80;99.90
34698;DHT22;61391;50.922;6.928;2023-07-09T05:07:30;21.90;99.90
34698;DHT22;61391;50.922;6.928;2023-07-09T05:09:59;22.00;99.90
34698;DHT22;61391;50.922;6.928;2023-07-09T05:12:27;22.00;99.90
34698;DHT22;61391;50.922;6.928;2023-07-09T05:14:57;22.10;99.90
34698;DHT22;61391;50.922;6.928;2023-07-09T05:21:07;22.40;99.90
34698;DHT22;61391;50.922;6.928;2023-07-09T05:23:34;22.50;99.90
34698;DHT22;61391;50.922;6.928;2023-07-09T05:29:27;22.50;99.90
34698;DHT22;61391;50.922;6.928;2023-07-09T05:35:15;22.60;99.90
34698;DHT22;61391;50.922;6.928;2023-07-09T05:41:05;22.50;99.90
34698;DHT22;61391;50.922;6.928;2023-07-09T05:43:33;22.20;99.90
34698;DHT22;61391;50.922;6.928;2023-07-09T05:46:01;22.40;99.90
34698;DHT22;61391;50.922;6.928;2023-07-09T05:48:28;22.40;99.90
34698;DHT22;61391;50.922;6.928;2023-07-09T05:50:54;22.40;99.90
34698;DHT22;61391;50.922;6.928;2023-07-09T05:53:21;22.50;99.90
34698;DHT22;61391;50.922;6.928;2023-07-09T05:55:47;22.60;99.90
34698;DHT22;61391;50.922;6.928;2023-07-09T05:58:12;22.80;99.90
34698;DHT22;61391;50.922;6.928;2023-07-09T06:04:05;23.20;99.90
34698;DHT22;61391;50.922;6.928;2023-07-09T06:06:33;23.40;99.90
34698;DHT22;61391;50.922;6.928;2023-07-09T06:08:59;23.50;99.90
34698;DHT22;61391;50.922;6.928;2023-07-09T06:14:52;23.20;99.90
34698;DHT22;61391;50.922;6.928;2023-07-09T06:20:49;23.40;99.90
34698;DHT22;61391;50.922;6.928;2023-07-09T06:23:16;23.50;99.90
34698;DHT22;61391;50.922;6.928;2023-07-09T06:25:43;23.80;99.90
34698;DHT22;61391;50.922;6.928;2023-07-09T06:28:15;24.10;99.90
34698;DHT22;61391;50.922;6.928;2023-07-09T06:34:10;24.20;99.90
34698;DHT22;61391;50.922;6.928;2023-07-09T06:39:57;24.60;99.90
34698;DHT22;61391;50.922;6.928;2023-07-09T06:46:05;24.80;99.90
34698;DHT22;61391;50.922;6.928;2023-07-09T06:48:34;25.00;99.90
34698;DHT22;61391;50.922;6.928;2023-07-09T06:51:06;25.10;99.90
34698;DHT22;61391;50.922;6.928;2023-07-09T06:56:57;25.80;99.90
34698;DHT22;61391;50.922;6.928;2023-07-09T06:59:22;25.90;99.90
34698;DHT22;61391;50.922;6.928;2023-07-09T07:05:15;26.50;99.90
34698;DHT22;61391;50.922;6.928;2023-07-09T07:07:43;26.90;99.90
34698;DHT22;61391;50.922;6.928;2023-07-09T07:13:34;27.00;99.90
34698;DHT22;61391;50.922;6.928;2023-07-09T07:16:06;26.80;99.90
34698;DHT22;61391;50.922;6.928;2023-07-09T07:18:38;26.90;99.90
34698;DHT22;61391;50.922;6.928;2023-07-09T07:24:42;26.70;99.90
34698;DHT22;61391;50.922;6.928;2023-07-09T07:30:29;27.60;99.90
34698;DHT22;61391;50.922;6.928;2023-07-09T07:32:56;28.90;99.90
34698;DHT22;61391;50.922;6.928;2023-07-09T07:35:41;30.10;99.90
34698;DHT22;61391;50.922;6.928;2023-07-09T07:38:09;31.10;99.90
34698;DHT22;61391;50.922;6.928;2023-07-09T07:40:38;30.90;99.90
34698;DHT22;61391;50.922;6.928;2023-07-09T07:43:05;31.10;99.90
34698;DHT22;61391;50.922;6.928;2023-07-09T07:49:03;32.00;99.90
34698;DHT22;61391;50.922;6.928;2023-07-09T07:51:33;32.40;99.90
34698;DHT22;61391;50.922;6.928;2023-07-09T07:54:02;33.70;99.90
34698;DHT22;61391;50.922;6.928;2023-07-09T07:56:35;35.20;99.50
34698;DHT22;61391;50.922;6.928;2023-07-09T07:59:14;34.90;98.80
34698;DHT22;61391;50.922;6.928;2023-07-09T08:02:04;34.40;97.30
34698;DHT22;61391;50.922;6.928;2023-07-09T08:04:32;33.60;99.60
34698;DHT22;61391;50.922;6.928;2023-07-09T08:07:01;34.40;99.60
34698;DHT22;61391;50.922;6.928;2023-07-09T08:09:58;36.40;96.10
34698;DHT22;61391;50.922;6.928;2023-07-09T08:16:33;37.90;91.60
34698;DHT22;61391;50.922;6.928;2023-07-09T08:22:43;38.10;88.30
34698;DHT22;61391;50.922;6.928;2023-07-09T08:32:30;40.50;78.20
34698;DHT22;61391;50.922;6.928;2023-07-09T08:38:29;38.90;79.00
34698;DHT22;61391;50.922;6.928;2023-07-09T08:50:14;38.40;82.10
34698;DHT22;61391;50.922;6.928;2023-07-09T08:52:42;39.00;80.30
34698;DHT22;61391;50.922;6.928;2023-07-09T08:55:16;38.20;80.00
34698;DHT22;61391;50.922;6.928;2023-07-09T08:57:50;39.00;79.40
34698;DHT22;61391;50.922;6.928;2023-07-09T09:06:39;42.10;72.00
34698;DHT22;61391;50.922;6.928;2023-07-09T09:09:39;40.00;76.00
34698;DHT22;61391;50.922;6.928;2023-07-09T09:12:30;40.90;73.60
34698;DHT22;61391;50.922;6.928;2023-07-09T09:15:03;40.90;71.80
34698;DHT22;61391;50.922;6.928;2023-07-09T09:21:21;41.70;69.40
34698;DHT22;61391;50.922;6.928;2023-07-09T09:27:15;39.20;75.70
34698;DHT22;61391;50.922;6.928;2023-07-09T09:29:54;39.40;73.00
34698;DHT22;61391;50.922;6.928;2023-07-09T09:32:41;38.90;75.20
34698;DHT22;61391;50.922;6.928;2023-07-09T09:36:11;39.80;74.70
34698;DHT22;61391;50.922;6.928;2023-07-09T09:39:15;41.40;70.90
34698;DHT22;61391;50.922;6.928;2023-07-09T09:45:17;41.30;69.20
34698;DHT22;61391;50.922;6.928;2023-07-09T09:58:00;42.30;66.10
34698;DHT22;61391;50.922;6.928;2023-07-09T10:00:56;39.70;70.50
34698;DHT22;61391;50.922;6.928;2023-07-09T10:03:38;39.20;71.10
34698;DHT22;61391;50.922;6.928;2023-07-09T10:06:36;39.60;71.10
34698;DHT22;61391;50.922;6.928;2023-07-09T10:22:02;40.30;70.30
34698;DHT22;61391;50.922;6.928;2023-07-09T10:33:12;43.50;65.40
34698;DHT22;61391;50.922;6.928;2023-07-09T10:41:16;41.10;66.00
34698;DHT22;61391;50.922;6.928;2023-07-09T10:49:21;43.20;63.80
34698;DHT22;61391;50.922;6.928;2023-07-09T10:52:17;43.90;63.10
34698;DHT22;61391;50.922;6.928;2023-07-09T11:05:06;43.90;60.50
34698;DHT22;61391;50.922;6.928;2023-07-09T11:11:22;42.90;60.70
34698;DHT22;61391;50.922;6.928;2023-07-09T11:17:22;42.00;62.50
34698;DHT22;61391;50.922;6.928;2023-07-09T11:23:38;42.30;59.90
34698;DHT22;61391;50.922;6.928;2023-07-09T11:26:28;42.70;59.10
34698;DHT22;61391;50.922;6.928;2023-07-09T11:29:16;41.20;61.40
34698;DHT22;61391;50.922;6.928;2023-07-09T11:31:46;41.10;60.90
34698;DHT22;61391;50.922;6.928;2023-07-09T11:34:19;41.30;62.00
34698;DHT22;61391;50.922;6.928;2023-07-09T11:40:12;41.00;60.60
34698;DHT22;61391;50.922;6.928;2023-07-09T11:42:56;40.90;60.10
34698;DHT22;61391;50.922;6.928;2023-07-09T11:48:45;40.60;58.80
34698;DHT22;61391;50.922;6.928;2023-07-09T11:51:23;41.20;56.60
34698;DHT22;61391;50.922;6.928;2023-07-09T11:53:56;39.80;56.80
34698;DHT22;61391;50.922;6.928;2023-07-09T11:56:26;39.30;57.70
34698;DHT22;61391;50.922;6.928;2023-07-09T11:58:57;38.80;57.40
34698;DHT22;61391;50.922;6.928;2023-07-09T12:01:36;38.90;57.50
34698;DHT22;61391;50.922;6.928;2023-07-09T12:07:34;38.30;57.20
34698;DHT22;61391;50.922;6.928;2023-07-09T12:13:42;38.80;56.80
34698;DHT22;61391;50.922;6.928;2023-07-09T12:16:31;38.20;57.00
34698;DHT22;61391;50.922;6.928;2023-07-09T12:19:23;38.20;57.40
34698;DHT22;61391;50.922;6.928;2023-07-09T12:21:52;37.80;57.70
34698;DHT22;61391;50.922;6.928;2023-07-09T12:24:39;37.30;57.90
34698;DHT22;61391;50.922;6.928;2023-07-09T12:27:31;36.80;58.80
34698;DHT22;61391;50.922;6.928;2023-07-09T12:30:12;36.60;58.60
34698;DHT22;61391;50.922;6.928;2023-07-09T12:32:56;36.70;59.10
34698;DHT22;61391;50.922;6.928;2023-07-09T12:35:25;36.30;60.50
34698;DHT22;61391;50.922;6.928;2023-07-09T12:41:03;37.00;60.00
34698;DHT22;61391;50.922;6.928;2023-07-09T12:43:39;36.60;60.40
34698;DHT22;61391;50.922;6.928;2023-07-09T12:46:05;36.20;61.90
34698;DHT22;61391;50.922;6.928;2023-07-09T12:48:47;36.30;61.30
34698;DHT22;61391;50.922;6.928;2023-07-09T12:54:59;37.10;60.60
34698;DHT22;61391;50.922;6.928;2023-07-09T13:00:59;37.00;60.10
34698;DHT22;61391;50.922;6.928;2023-07-09T13:03:31;37.20;60.00
34698;DHT22;61391;50.922;6.928;2023-07-09T13:06:06;36.90;60.60
34698;DHT22;61391;50.922;6.928;2023-07-09T13:08:55;36.80;60.60
34698;DHT22;61391;50.922;6.928;2023-07-09T13:11:47;37.00;60.30
34698;DHT22;61391;50.922;6.928;2023-07-09T13:14:30;36.80;60.40
34698;DHT22;61391;50.922;6.928;2023-07-09T13:17:09;36.60;60.50
34698;DHT22;61391;50.922;6.928;2023-07-09T13:19:36;36.70;60.20
34698;DHT22;61391;50.922;6.928;2023-07-09T13:22:07;36.70;60.20
34698;DHT22;61391;50.922;6.928;2023-07-09T13:24:35;36.30;61.60
34698;DHT22;61391;50.922;6.928;2023-07-09T13:27:02;36.40;62.10
34698;DHT22;61391;50.922;6.928;2023-07-09T13:29:33;36.20;63.20
34698;DHT22;61391;50.922;6.928;2023-07-09T13:32:01;36.10;63.70
34698;DHT22;61391;50.922;6.928;2023-07-09T13:37:33;36.20;64.40
34698;DHT22;61391;50.922;6.928;2023-07-09T13:40:05;36.10;64.20
34698;DHT22;61391;50.922;6.928;2023-07-09T13:42:36;35.90;64.80
34698;DHT22;61391;50.922;6.928;2023-07-09T13:45:04;35.90;64.90
34698;DHT22;61391;50.922;6.928;2023-07-09T13:54:20;35.10;65.00
34698;DHT22;61391;50.922;6.928;2023-07-09T13:56:50;35.10;64.60
34698;DHT22;61391;50.922;6.928;2023-07-09T14:02:43;35.30;64.10
34698;DHT22;61391;50.922;6.928;2023-07-09T14:05:21;35.50;63.50
34698;DHT22;61391;50.922;6.928;2023-07-09T14:11:15;35.50;62.50
34698;DHT22;61391;50.922;6.928;2023-07-09T14:13:52;35.40;66.70
34698;DHT22;61391;50.922;6.928;2023-07-09T14:23:03;34.80;70.40
34698;DHT22;61391;50.922;6.928;2023-07-09T14:29:04;34.30;71.40
34698;DHT22;61391;50.922;6.928;2023-07-09T14:31:32;33.80;72.50
34698;DHT22;61391;50.922;6.928;2023-07-09T14:37:15;32.40;76.10
34698;DHT22;61391;50.922;6.928;2023-07-09T14:43:18;31.10;83.80
34698;DHT22;61391;50.922;6.928;2023-07-09T14:45:45;30.60;91.10
34698;DHT22;61391;50.922;6.928;2023-07-09T14:48:15;30.00;95.90
34698;DHT22;61391;50.922;6.928;2023-07-09T14:54:13;29.00;99.90
34698;DHT22;61391;50.922;6.928;2023-07-09T15:13:12;26.90;99.90
34698;DHT22;61391;50.922;6.928;2023-07-09T15:19:26;26.90;99.90
34698;DHT22;61391;50.922;6.928;2023-07-09T15:21:56;27.00;99.90
34698;DHT22;61391;50.922;6.928;2023-07-09T15:24:53;27.10;99.90
34698;DHT22;61391;50.922;6.928;2023-07-09T15:27:50;27.30;99.90
34698;DHT22;61391;50.922;6.928;2023-07-09T15:30:29;27.40;99.90
34698;DHT22;61391;50.922;6.928;2023-07-09T15:36:24;27.40;99.90
34698;DHT22;61391;50.922;6.928;2023-07-09T15:38:50;27.40;99.90
34698;DHT22;61391;50.922;6.928;2023-07-09T15:41:32;27.50;99.90
34698;DHT22;61391;50.922;6.928;2023-07-09T15:47:26;27.60;99.90
34698;DHT22;61391;50.922;6.928;2023-07-09T15:49:53;27.80;99.90
34698;DHT22;61391;50.922;6.928;2023-07-09T15:52:20;27.40;99.90
34698;DHT22;61391;50.922;6.928;2023-07-09T15:54:48;27.30;99.90
34698;DHT22;61391;50.922;6.928;2023-07-09T16:00:37;27.50;99.90
34698;DHT22;61391;50.922;6.928;2023-07-09T16:03:07;27.50;99.90
34698;DHT22;61391;50.922;6.928;2023-07-09T16:05:34;27.40;99.90
34698;DHT22;61391;50.922;6.928;2023-07-09T16:08:01;27.70;99.90
34698;DHT22;61391;50.922;6.928;2023-07-09T16:10:27;27.70;99.90
34698;DHT22;61391;50.922;6.928;2023-07-09T16:12:57;27.50;99.90
34698;DHT22;61391;50.922;6.928;2023-07-09T16:15:24;27.30;99.90
34698;DHT22;61391;50.922;6.928;2023-07-09T16:17:53;27.00;99.90
34698;DHT22;61391;50.922;6.928;2023-07-09T16:20:27;26.70;99.90
34698;DHT22;61391;50.922;6.928;2023-07-09T16:22:57;26.60;99.90
34698;DHT22;61391;50.922;6.928;2023-07-09T16:25:25;26.50;99.90
34698;DHT22;61391;50.922;6.928;2023-07-09T16:27:55;26.30;99.90
34698;DHT22;61391;50.922;6.928;2023-07-09T16:30:24;26.10;99.90
34698;DHT22;61391;50.922;6.928;2023-07-09T16:32:58;26.00;99.90
34698;DHT22;61391;50.922;6.928;2023-07-09T16:35:27;25.90;99.90
34698;DHT22;61391;50.922;6.928;2023-07-09T16:44:29;25.70;99.90
34698;DHT22;61391;50.922;6.928;2023-07-09T16:50:25;25.70;99.90
34698;DHT22;61391;50.922;6.928;2023-07-09T16:52:53;25.60;99.90
34698;DHT22;61391;50.922;6.928;2023-07-09T16:55:22;25.70;99.90
34698;DHT22;61391;50.922;6.928;2023-07-09T16:57:53;25.80;99.90
34698;DHT22;61391;50.922;6.928;2023-07-09T17:00:29;25.70;99.90
34698;DHT22;61391;50.922;6.928;2023-07-09T17:03:05;26.00;99.90
34698;DHT22;61391;50.922;6.928;2023-07-09T17:05:38;26.40;99.90
34698;DHT22;61391;50.922;6.928;2023-07-09T17:08:08;26.80;99.90
34698;DHT22;61391;50.922;6.928;2023-07-09T17:10:33;26.90;99.90
34698;DHT22;61391;50.922;6.928;2023-07-09T17:16:21;27.50;99.90
34698;DHT22;61391;50.922;6.928;2023-07-09T17:18:49;27.70;99.90
34698;DHT22;61391;50.922;6.928;2023-07-09T17:21:15;27.90;99.90
34698;DHT22;61391;50.922;6.928;2023-07-09T17:23:43;27.90;99.90
34698;DHT22;61391;50.922;6.928;2023-07-09T17:26:10;28.10;99.90
34698;DHT22;61391;50.922;6.928;2023-07-09T17:32:01;28.20;99.90
34698;DHT22;61391;50.922;6.928;2023-07-09T17:55:14;28.20;99.90
34698;DHT22;61391;50.922;6.928;2023-07-09T18:11:22;28.20;99.90
34698;DHT22;61391;50.922;6.928;2023-07-09T18:13:57;28.20;99.90
34698;DHT22;61391;50.922;6.928;2023-07-09T18:19:49;28.00;99.90
34698;DHT22;61391;50.922;6.928;2023-07-09T18:25:45;28.00;99.90
34698;DHT22;61391;50.922;6.928;2023-07-09T18:38:38;27.80;99.90
34698;DHT22;61391;50.922;6.928;2023-07-09T18:41:14;27.70;99.90
34698;DHT22;61391;50.922;6.928;2023-07-09T18:46:38;27.50;99.90
34698;DHT22;61391;50.922;6.928;2023-07-09T18:49:09;27.40;99.90
34698;DHT22;61391;50.922;6.928;2023-07-09T18:58:31;27.30;99.90
34698;DHT22;61391;50.922;6.928;2023-07-09T19:01:27;27.20;99.90
34698;DHT22;61391;50.922;6.928;2023-07-09T19:04:04;27.00;99.90
34698;DHT22;61391;50.922;6.928;2023-07-09T19:06:43;27.00;99.90
34698;DHT22;61391;50.922;6.928;2023-07-09T19:09:28;26.90;99.90
34698;DHT22;61391;50.922;6.928;2023-07-09T19:11:54;26.90;99.90
34698;DHT22;61391;50.922;6.928;2023-07-09T19:14:23;26.90;99.90
34698;DHT22;61391;50.922;6.928;2023-07-09T19:16:55;26.70;99.90
34698;DHT22;61391;50.922;6.928;2023-07-09T19:22:53;26.50;99.90
34698;DHT22;61391;50.922;6.928;2023-07-09T19:25:33;26.50;99.90
34698;DHT22;61391;50.922;6.928;2023-07-09T19:28:01;26.50;99.90
34698;DHT22;61391;50.922;6.928;2023-07-09T19:34:17;26.40;99.90
34698;DHT22;61391;50.922;6.928;2023-07-09T19:36:56;26.30;99.90
34698;DHT22;61391;50.922;6.928;2023-07-09T19:39:29;26.40;99.90
34698;DHT22;61391;50.922;6.928;2023-07-09T19:42:12;26.40;99.90
34698;DHT22;61391;50.922;6.928;2023-07-09T19:48:03;26.30;99.90
34698;DHT22;61391;50.922;6.928;2023-07-09T19:53:51;26.20;99.90
34698;DHT22;61391;50.922;6.928;2023-07-09T19:59:46;26.10;99.90
34698;DHT22;61391;50.922;6.928;2023-07-09T20:02:23;26.00;99.90
34698;DHT22;61391;50.922;6.928;2023-07-09T20:04:58;26.00;99.90
34698;DHT22;61391;50.922;6.928;2023-07-09T20:07:27;26.00;99.90
34698;DHT22;61391;50.922;6.928;2023-07-09T20:13:25;25.80;99.90
34698;DHT22;61391;50.922;6.928;2023-07-09T20:15:54;25.80;99.90
34698;DHT22;61391;50.922;6.928;2023-07-09T20:18:27;25.80;99.90
34698;DHT22;61391;50.922;6.928;2023-07-09T20:20:56;25.60;99.90
34698;DHT22;61391;50.922;6.928;2023-07-09T20:23:25;25.60;99.90
34698;DHT22;61391;50.922;6.928;2023-07-09T20:25:52;25.50;99.90
34698;DHT22;61391;50.922;6.928;2023-07-09T20:28:23;25.60;99.90
34698;DHT22;61391;50.922;6.928;2023-07-09T20:30:51;25.70;99.90
34698;DHT22;61391;50.922;6.928;2023-07-09T20:33:22;25.70;99.90
34698;DHT22;61391;50.922;6.928;2023-07-09T20:35:57;25.60;99.90
34698;DHT22;61391;50.922;6.928;2023-07-09T20:38:31;25.60;99.90
34698;DHT22;61391;50.922;6.928;2023-07-09T20:44:26;25.50;99.90
34698;DHT22;61391;50.922;6.928;2023-07-09T20:46:58;25.40;99.90
34698;DHT22;61391;50.922;6.928;2023-07-09T20:49:37;25.50;99.90
34698;DHT22;61391;50.922;6.928;2023-07-09T20:52:06;25.70;99.90
34698;DHT22;61391;50.922;6.928;2023-07-09T20:54:37;25.70;99.90
34698;DHT22;61391;50.922;6.928;2023-07-09T20:57:14;25.70;99.90
34698;DHT22;61391;50.922;6.928;2023-07-09T20:59:50;25.70;99.90
34698;DHT22;61391;50.922;6.928;2023-07-09T21:02:23;25.60;99.90
34698;DHT22;61391;50.922;6.928;2023-07-09T21:08:23;25.60;99.90
34698;DHT22;61391;50.922;6.928;2023-07-09T21:10:51;25.70;99.90
34698;DHT22;61391;50.922;6.928;2023-07-09T21:13:19;25.60;99.90
34698;DHT22;61391;50.922;6.928;2023-07-09T21:15:53;25.70;99.90
34698;DHT22;61391;50.922;6.928;2023-07-09T21:18:28;25.70;99.90
34698;DHT22;61391;50.922;6.928;2023-07-09T21:20:57;25.70;99.90
34698;DHT22;61391;50.922;6.928;2023-07-09T21:23:23;25.70;99.90
34698;DHT22;61391;50.922;6.928;2023-07-09T21:25:51;25.60;99.90
34698;DHT22;61391;50.922;6.928;2023-07-09T21:28:18;25.50;99.90
34698;DHT22;61391;50.922;6.928;2023-07-09T21:30:44;25.40;99.90
34698;DHT22;61391;50.922;6.928;2023-07-09T21:36:44;25.40;99.90
34698;DHT22;61391;50.922;6.928;2023-07-09T21:39:20;25.50;99.90
34698;DHT22;61391;50.922;6.928;2023-07-09T21:41:55;25.40;99.90
34698;DHT22;61391;50.922;6.928;2023-07-09T21:44:25;25.50;99.90
34698;DHT22;61391;50.922;6.928;2023-07-09T21:46:55;25.60;99.90
34698;DHT22;61391;50.922;6.928;2023-07-09T21:49:27;25.60;99.90
34698;DHT22;61391;50.922;6.928;2023-07-09T21:51:54;25.40;99.90
34698;DHT22;61391;50.922;6.928;2023-07-09T21:54:35;25.50;99.90
34698;DHT22;61391;50.922;6.928;2023-07-09T21:57:08;25.40;99.90
34698;DHT22;61391;50.922;6.928;2023-07-09T21:59:35;25.40;99.90
34698;DHT22;61391;50.922;6.928;2023-07-09T22:02:01;25.30;99.90
34698;DHT22;61391;50.922;6.928;2023-07-09T22:04:53;25.20;99.90
34698;DHT22;61391;50.922;6.928;2023-07-09T22:07:23;25.40;99.90
34698;DHT22;61391;50.922;6.928;2023-07-09T22:09:54;25.40;99.90
34698;DHT22;61391;50.922;6.928;2023-07-09T22:12:21;25.30;99.90
34698;DHT22;61391;50.922;6.928;2023-07-09T22:18:16;25.30;99.90
34698;DHT22;61391;50.922;6.928;2023-07-09T22:20:44;25.20;99.90
34698;DHT22;61391;50.922;6.928;2023-07-09T22:26:33;25.20;99.90
34698;DHT22;61391;50.922;6.928;2023-07-09T22:29:05;25.10;99.90
34698;DHT22;61391;50.922;6.928;2023-07-09T22:31:32;25.10;99.90
34698;DHT22;61391;50.922;6.928;2023-07-09T22:34:00;25.20;99.90
34698;DHT22;61391;50.922;6.928;2023-07-09T22:36:27;25.20;99.90
34698;DHT22;61391;50.922;6.928;2023-07-09T22:38:55;25.10;99.90
34698;DHT22;61391;50.922;6.928;2023-07-09T22:41:22;25.20;99.90
34698;DHT22;61391;50.922;6.928;2023-07-09T22:43:53;25.30;99.90
34698;DHT22;61391;50.922;6.928;2023-07-09T22:46:19;25.20;99.90
34698;DHT22;61391;50.922;6.928;2023-07-09T22:48:59;25.20;99.90
34698;DHT22;61391;50.922;6.928;2023-07-09T22:51:24;25.10;99.90
34698;DHT22;61391;50.922;6.928;2023-07-09T22:53:52;25.00;99.90
34698;DHT22;61391;50.922;6.928;2023-07-09T22:56:18;25.00;99.90
34698;DHT22;61391;50.922;6.928;2023-07-09T23:02:13;25.00;99.90
34698;DHT22;61391;50.922;6.928;2023-07-09T23:04:49;24.80;99.90
34698;DHT22;61391;50.922;6.928;2023-07-09T23:07:15;24.60;99.90
34698;DHT22;61391;50.922;6.928;2023-07-09T23:09:40;24.80;99.90
34698;DHT22;61391;50.922;6.928;2023-07-09T23:12:11;24.80;99.90
34698;DHT22;61391;50.922;6.928;2023-07-09T23:14:41;24.80;99.90
34698;DHT22;61391;50.922;6.928;2023-07-09T23:17:16;24.70;99.90
34698;DHT22;61391;50.922;6.928;2023-07-09T23:19:45;24.80;99.90
34698;DHT22;61391;50.922;6.928;2023-07-09T23:22:11;24.80;99.90
34698;DHT22;61391;50.922;6.928;2023-07-09T23:24:38;24.80;99.90
34698;DHT22;61391;50.922;6.928;2023-07-09T23:27:15;24.70;99.90
34698;DHT22;61391;50.922;6.928;2023-07-09T23:29:42;24.70;99.90
34698;DHT22;61391;50.922;6.928;2023-07-09T23:32:13;24.60;99.90
34698;DHT22;61391;50.922;6.928;2023-07-09T23:34:40;24.70;99.90